createdAt,value
2018-06-20T00:01:35.014Z,17.70
2018-06-20T00:04:02.354Z,17.70
2018-06-20T00:06:30.699Z,17.60
2018-06-20T00:08:58.106Z,17.50
2018-06-20T00:11:25.523Z,17.40
2018-06-20T00:13:53.849Z,17.40
2018-06-20T00:16:21.356Z,17.40
2018-06-20T00:18:48.907Z,17.50
2018-06-20T00:21:16.277Z,17.40
2018-06-20T00:23:43.713Z,17.50
2018-06-20T00:26:11.181Z,17.50
2018-06-20T00:28:38.845Z,17.50
2018-06-20T00:31:06.379Z,17.40
2018-06-20T00:33:33.823Z,17.40
2018-06-20T00:36:01.139Z,17.50
2018-06-20T00:38:28.586Z,17.50
2018-06-20T00:40:55.956Z,17.40
2018-06-20T00:43:23.334Z,17.30
2018-06-20T00:45:50.709Z,17.30
2018-06-20T00:48:18.063Z,17.20
2018-06-20T00:50:45.383Z,17.10
2018-06-20T00:53:12.803Z,17.00
2018-06-20T00:55:51.677Z,16.90
2018-06-20T00:58:19.106Z,17.00
2018-06-20T01:00:46.482Z,17.10
2018-06-20T01:03:13.945Z,17.10
2018-06-20T01:05:41.323Z,17.00
2018-06-20T01:08:08.701Z,16.90
2018-06-20T01:10:36.073Z,16.90
2018-06-20T01:13:03.483Z,16.80
2018-06-20T01:15:30.896Z,16.70
2018-06-20T01:17:58.295Z,16.60
2018-06-20T01:20:25.622Z,16.60
2018-06-20T01:22:53.019Z,16.50
2018-06-20T01:25:20.463Z,16.60
2018-06-20T01:27:47.885Z,16.50
2018-06-20T01:30:15.261Z,16.50
2018-06-20T01:32:42.604Z,16.40
2018-06-20T01:35:09.957Z,16.40
2018-06-20T01:37:37.386Z,16.40
2018-06-20T01:40:04.867Z,16.30
2018-06-20T01:42:32.239Z,16.20
2018-06-20T01:44:59.597Z,16.20
2018-06-20T01:47:26.937Z,16.20
2018-06-20T01:49:54.270Z,16.30
2018-06-20T01:52:22.027Z,16.30
2018-06-20T01:54:49.441Z,16.20
2018-06-20T01:57:16.769Z,16.30
2018-06-20T01:59:44.073Z,16.30
2018-06-20T02:02:11.405Z,16.30
2018-06-20T02:04:38.797Z,16.30
2018-06-20T02:07:06.429Z,16.30
2018-06-20T02:09:33.817Z,16.30
2018-06-20T02:12:01.189Z,16.40
2018-06-20T02:14:28.475Z,16.50
2018-06-20T02:19:23.287Z,16.50
2018-06-20T02:21:50.662Z,16.40
2018-06-20T02:24:17.981Z,16.50
2018-06-20T02:26:45.315Z,16.60
2018-06-20T02:29:12.727Z,16.60
2018-06-20T02:31:40.063Z,16.60
2018-06-20T02:34:07.510Z,16.60
2018-06-20T02:36:34.901Z,16.50
2018-06-20T02:39:05.161Z,16.50
2018-06-20T02:41:32.580Z,16.50
2018-06-20T02:44:00.077Z,16.50
2018-06-20T02:46:27.411Z,16.40
2018-06-20T02:48:54.837Z,16.40
2018-06-20T02:51:22.106Z,16.40
2018-06-20T02:53:49.461Z,16.30
2018-06-20T02:56:16.892Z,16.30
2018-06-20T02:58:44.215Z,16.30
2018-06-20T03:01:11.628Z,16.30
2018-06-20T03:03:38.988Z,16.30
2018-06-20T03:06:06.361Z,16.30
2018-06-20T03:08:33.738Z,16.30
2018-06-20T03:11:01.141Z,16.30
2018-06-20T03:13:28.580Z,16.40
2018-06-20T03:15:55.914Z,16.40
2018-06-20T03:18:23.236Z,16.30
2018-06-20T03:20:50.560Z,16.30
2018-06-20T03:23:17.940Z,16.30
2018-06-20T03:25:45.418Z,16.50
2018-06-20T03:28:12.694Z,16.50
2018-06-20T03:30:40.065Z,16.50
2018-06-20T03:33:07.547Z,16.50
2018-06-20T03:35:35.032Z,16.50
2018-06-20T03:38:02.354Z,16.50
2018-06-20T03:40:29.724Z,16.50
2018-06-20T03:42:57.151Z,16.50
2018-06-20T03:45:24.589Z,16.50
2018-06-20T03:47:51.966Z,16.60
2018-06-20T03:50:19.318Z,16.60
2018-06-20T03:52:46.642Z,16.60
2018-06-20T03:55:14.050Z,16.60
2018-06-20T03:57:41.450Z,16.70
2018-06-20T04:02:36.222Z,16.80
2018-06-20T04:05:03.590Z,16.80
2018-06-20T04:07:30.978Z,16.80
2018-06-20T04:09:58.458Z,16.90
2018-06-20T04:12:25.910Z,16.90
2018-06-20T04:14:53.237Z,16.90
2018-06-20T04:17:20.638Z,16.80
2018-06-20T04:19:48.006Z,16.90
2018-06-20T04:22:15.410Z,16.90
2018-06-20T04:24:42.824Z,16.90
2018-06-20T04:27:19.820Z,16.90
2018-06-20T04:29:51.763Z,16.90
2018-06-20T04:32:19.533Z,17.00
2018-06-20T04:34:47.018Z,17.10
2018-06-20T04:37:14.377Z,17.10
2018-06-20T04:39:41.896Z,17.30
2018-06-20T04:42:09.347Z,17.40
2018-06-20T04:44:36.791Z,17.50
2018-06-20T04:47:04.113Z,17.50
2018-06-20T04:49:31.483Z,17.50
2018-06-20T04:51:58.863Z,17.50
2018-06-20T04:54:26.405Z,17.70
2018-06-20T04:56:53.847Z,17.70
2018-06-20T04:59:21.366Z,17.70
2018-06-20T05:01:48.841Z,17.70
2018-06-20T05:04:16.256Z,17.80
2018-06-20T05:06:43.617Z,17.80
2018-06-20T05:09:16.503Z,17.90
2018-06-20T05:11:43.817Z,17.90
2018-06-20T05:14:11.195Z,18.00
2018-06-20T05:16:38.627Z,18.10
2018-06-20T05:19:06.081Z,18.10
2018-06-20T05:21:33.442Z,18.10
2018-06-20T05:24:00.869Z,18.20
2018-06-20T05:26:28.257Z,18.30
2018-06-20T05:28:55.584Z,18.40
2018-06-20T05:31:23.049Z,18.60
2018-06-20T05:33:50.505Z,18.70
2018-06-20T05:36:17.851Z,18.70
2018-06-20T05:38:45.277Z,18.70
2018-06-20T05:41:12.784Z,18.70
2018-06-20T05:43:40.211Z,18.80
2018-06-20T05:46:07.725Z,18.80
2018-06-20T05:48:35.218Z,18.90
2018-06-20T05:51:02.573Z,19.00
2018-06-20T05:53:30.391Z,18.80
2018-06-20T05:55:57.714Z,18.80
2018-06-20T05:58:25.158Z,18.90
2018-06-20T06:00:52.532Z,19.00
2018-06-20T06:03:19.983Z,19.10
2018-06-20T06:06:09.672Z,19.40
2018-06-20T06:08:37.194Z,19.60
2018-06-20T06:11:04.602Z,19.60
2018-06-20T06:13:32.053Z,20.00
2018-06-20T06:15:59.441Z,20.10
2018-06-20T06:18:26.907Z,20.20
2018-06-20T06:20:54.255Z,20.30
2018-06-20T06:23:21.664Z,20.50
2018-06-20T06:25:49.008Z,20.70
2018-06-20T06:28:16.417Z,20.80
2018-06-20T06:30:43.859Z,20.50
2018-06-20T06:33:11.290Z,20.50
2018-06-20T06:35:38.771Z,20.70
2018-06-20T06:38:06.247Z,21.00
2018-06-20T06:40:33.755Z,21.20
2018-06-20T06:43:01.169Z,21.40
2018-06-20T06:45:28.655Z,21.30
2018-06-20T06:47:56.135Z,21.50
2018-06-20T06:50:23.589Z,21.60
2018-06-20T06:52:51.012Z,21.70
2018-06-20T06:55:18.382Z,21.90
2018-06-20T06:57:46.070Z,21.90
2018-06-20T07:02:41.212Z,22.00
2018-06-20T07:05:08.594Z,22.00
2018-06-20T07:07:36.067Z,22.10
2018-06-20T07:10:03.504Z,22.40
2018-06-20T07:12:30.906Z,22.50
2018-06-20T07:14:58.392Z,22.60
2018-06-20T07:17:25.750Z,22.70
2018-06-20T07:19:53.323Z,22.60
2018-06-20T07:22:21.208Z,22.70
2018-06-20T07:24:49.290Z,23.00
2018-06-20T07:27:17.231Z,23.00
2018-06-20T07:29:44.703Z,23.00
2018-06-20T07:32:12.038Z,23.20
2018-06-20T07:34:39.509Z,23.40
2018-06-20T07:37:06.838Z,23.50
2018-06-20T07:39:34.471Z,23.60
2018-06-20T07:42:01.910Z,23.60
2018-06-20T07:44:29.328Z,23.80
2018-06-20T07:46:56.826Z,23.90
2018-06-20T07:49:24.217Z,24.00
2018-06-20T07:51:51.630Z,23.90
2018-06-20T07:54:18.993Z,23.70
2018-06-20T07:56:46.402Z,23.90
2018-06-20T07:59:14.692Z,24.00
2018-06-20T08:01:59.490Z,24.20
2018-06-20T08:04:32.441Z,24.30
2018-06-20T08:07:05.758Z,24.50
2018-06-20T08:09:39.022Z,24.30
2018-06-20T08:12:12.229Z,24.10
2018-06-20T08:15:13.814Z,23.80
2018-06-20T08:17:46.778Z,23.60
2018-06-20T08:20:20.760Z,23.40
2018-06-20T08:22:48.211Z,23.40
2018-06-20T08:25:15.580Z,23.90
2018-06-20T08:27:43.017Z,23.90
2018-06-20T08:30:10.370Z,23.90
2018-06-20T08:32:37.777Z,23.80
2018-06-20T08:35:05.300Z,23.80
2018-06-20T08:37:32.840Z,23.70
2018-06-20T08:40:00.189Z,23.70
2018-06-20T08:42:27.541Z,24.10
2018-06-20T08:44:55.580Z,24.50
2018-06-20T08:47:23.143Z,24.70
2018-06-20T08:49:50.585Z,24.80
2018-06-20T08:52:17.938Z,24.80
2018-06-20T08:54:45.260Z,24.60
2018-06-20T08:57:12.678Z,24.50
2018-06-20T08:59:40.041Z,24.20
2018-06-20T09:02:07.701Z,24.10
2018-06-20T09:04:40.777Z,24.10
2018-06-20T09:07:14.013Z,24.00
2018-06-20T09:09:47.215Z,24.00
2018-06-20T09:12:20.222Z,24.00
2018-06-20T09:14:53.490Z,24.00
2018-06-20T09:17:26.518Z,24.10
2018-06-20T09:19:55.486Z,24.10
2018-06-20T09:22:25.736Z,24.40
2018-06-20T09:24:53.130Z,24.50
2018-06-20T09:27:20.582Z,24.50
2018-06-20T09:29:48.016Z,24.60
2018-06-20T09:32:15.456Z,24.60
2018-06-20T09:34:43.290Z,24.60
2018-06-20T09:37:10.699Z,24.80
2018-06-20T09:39:38.168Z,25.00
2018-06-20T09:42:05.655Z,25.50
2018-06-20T09:44:33.091Z,25.90
2018-06-20T09:47:00.390Z,26.20
2018-06-20T09:49:27.784Z,26.50
2018-06-20T09:51:55.682Z,26.70
2018-06-20T09:54:23.185Z,26.90
2018-06-20T09:56:50.491Z,27.10
2018-06-20T09:59:23.514Z,27.10
2018-06-20T10:01:56.778Z,27.20
2018-06-20T10:04:30.033Z,27.40
2018-06-20T10:07:03.034Z,27.30
2018-06-20T10:09:36.383Z,27.50
2018-06-20T10:12:09.411Z,27.60
2018-06-20T10:14:36.851Z,27.80
2018-06-20T10:17:04.326Z,28.00
2018-06-20T10:19:31.702Z,28.00
2018-06-20T10:21:59.132Z,28.00
2018-06-20T10:24:26.468Z,27.90
2018-06-20T10:26:54.017Z,28.10
2018-06-20T10:29:21.394Z,28.00
2018-06-20T10:31:49.313Z,28.10
2018-06-20T10:34:16.793Z,28.20
2018-06-20T10:36:44.227Z,28.00
2018-06-20T10:39:11.761Z,28.10
2018-06-20T10:41:39.697Z,28.10
2018-06-20T10:44:12.433Z,28.20
2018-06-20T10:46:46.222Z,28.30
2018-06-20T10:49:15.059Z,28.40
2018-06-20T10:51:43.355Z,28.30
2018-06-20T10:54:10.726Z,28.60
2018-06-20T10:56:43.792Z,28.40
2018-06-20T10:59:16.929Z,28.50
2018-06-20T11:01:49.878Z,28.50
2018-06-20T11:04:23.657Z,28.60
2018-06-20T11:06:56.634Z,28.80
2018-06-20T11:12:02.727Z,28.10
2018-06-20T11:14:30.172Z,28.00
2018-06-20T11:16:57.465Z,28.00
2018-06-20T11:19:24.960Z,28.40
2018-06-20T11:21:52.342Z,28.70
2018-06-20T11:24:19.806Z,28.80
2018-06-20T11:26:47.222Z,28.90
2018-06-20T11:31:42.569Z,29.20
2018-06-20T11:34:10.039Z,29.00
2018-06-20T11:36:37.449Z,28.80
2018-06-20T11:39:07.607Z,29.10
2018-06-20T11:41:35.079Z,29.40
2018-06-20T11:44:02.515Z,29.50
2018-06-20T11:46:36.235Z,29.70
2018-06-20T11:49:04.394Z,29.40
2018-06-20T11:51:31.802Z,29.50
2018-06-20T11:53:59.185Z,29.50
2018-06-20T11:56:27.185Z,29.30
2018-06-20T11:59:00.377Z,29.30
2018-06-20T12:01:33.548Z,29.60
2018-06-20T12:04:06.875Z,29.80
2018-06-20T12:06:39.960Z,29.80
2018-06-20T12:09:13.271Z,29.60
2018-06-20T12:11:46.522Z,29.30
2018-06-20T12:15:19.774Z,29.00
2018-06-20T12:17:52.754Z,28.70
2018-06-20T12:20:26.012Z,28.40
2018-06-20T12:22:59.328Z,28.20
2018-06-20T12:25:32.542Z,28.10
2018-06-20T12:28:05.711Z,28.00
2018-06-20T12:30:38.858Z,28.40
2018-06-20T12:33:11.919Z,28.80
2018-06-20T12:35:45.486Z,28.90
2018-06-20T12:38:18.519Z,28.70
2018-06-20T12:40:51.657Z,28.50
2018-06-20T12:43:24.494Z,28.30
2018-06-20T12:45:57.738Z,28.40
2018-06-20T12:48:25.722Z,28.50
2018-06-20T12:50:53.146Z,28.70
2018-06-20T12:53:20.663Z,28.80
2018-06-20T12:55:48.113Z,29.10
2018-06-20T12:58:16.239Z,29.50
2018-06-20T13:00:43.710Z,29.70
2018-06-20T13:03:11.110Z,29.80
2018-06-20T13:05:38.893Z,30.00
2018-06-20T13:08:06.250Z,29.80
2018-06-20T13:10:33.599Z,29.90
2018-06-20T13:13:00.983Z,30.00
2018-06-20T13:15:28.450Z,30.10
2018-06-20T13:17:55.906Z,30.30
2018-06-20T13:20:23.343Z,30.50
2018-06-20T13:22:50.765Z,30.60
2018-06-20T13:25:18.534Z,30.90
2018-06-20T13:27:46.538Z,30.60
2018-06-20T13:30:14.416Z,30.60
2018-06-20T13:32:47.521Z,30.70
2018-06-20T13:35:20.690Z,30.60
2018-06-20T13:37:54.350Z,30.60
2018-06-20T13:40:27.661Z,30.70
2018-06-20T13:43:00.894Z,30.70
2018-06-20T13:45:34.198Z,30.40
2018-06-20T13:48:07.478Z,30.50
2018-06-20T13:50:35.392Z,30.50
2018-06-20T13:53:02.894Z,30.50
2018-06-20T13:55:30.258Z,30.60
2018-06-20T13:57:57.554Z,30.70
2018-06-20T14:00:25.122Z,30.00
2018-06-20T14:02:52.534Z,29.60
2018-06-20T14:05:20.010Z,29.40
2018-06-20T14:07:47.506Z,29.30
2018-06-20T14:10:14.898Z,29.80
2018-06-20T14:12:42.244Z,30.20
2018-06-20T14:15:09.665Z,30.40
2018-06-20T14:17:37.213Z,30.70
2018-06-20T14:20:10.346Z,30.70
2018-06-20T14:22:37.966Z,31.00
2018-06-20T14:25:05.647Z,31.30
2018-06-20T14:27:33.053Z,31.30
2018-06-20T14:30:00.762Z,31.20
2018-06-20T14:32:33.862Z,31.30
2018-06-20T14:36:04.876Z,31.40
2018-06-20T14:38:38.160Z,31.00
2018-06-20T14:41:11.291Z,31.10
2018-06-20T14:43:44.420Z,31.20
2018-06-20T14:46:16.967Z,31.40
2018-06-20T14:48:45.019Z,31.30
2018-06-20T14:51:12.569Z,31.60
2018-06-20T14:56:07.329Z,30.90
2018-06-20T14:58:34.940Z,30.30
2018-06-20T15:01:02.465Z,29.70
2018-06-20T15:03:29.743Z,29.30
2018-06-20T15:05:57.107Z,29.50
2018-06-20T15:08:24.516Z,29.80
2018-06-20T15:10:51.895Z,29.90
2018-06-20T15:13:19.290Z,30.20
2018-06-20T15:15:46.631Z,30.30
2018-06-20T15:18:14.425Z,29.70
2018-06-20T15:20:41.826Z,29.40
2018-06-20T15:23:09.221Z,28.80
2018-06-20T15:25:36.597Z,29.00
2018-06-20T15:28:09.647Z,29.00
2018-06-20T15:33:15.932Z,29.30
2018-06-20T15:35:49.181Z,29.00
2018-06-20T15:38:26.293Z,28.90
2018-06-20T15:40:53.730Z,29.10
2018-06-20T15:43:21.159Z,29.20
2018-06-20T15:45:48.665Z,29.30
2018-06-20T15:48:16.007Z,28.90
2018-06-20T15:50:43.577Z,28.90
2018-06-20T15:53:10.964Z,28.80
2018-06-20T15:55:38.404Z,29.00
2018-06-20T15:58:05.894Z,29.00
2018-06-20T16:00:33.398Z,28.90
2018-06-20T16:03:00.918Z,29.00
2018-06-20T16:05:28.331Z,29.10
2018-06-20T16:07:55.705Z,29.10
2018-06-20T16:10:23.230Z,28.90
2018-06-20T16:12:50.609Z,28.90
2018-06-20T16:15:18.397Z,28.90
2018-06-20T16:17:45.812Z,28.80
2018-06-20T16:20:18.933Z,28.90
2018-06-20T16:22:52.131Z,28.90
2018-06-20T16:25:25.289Z,28.90
2018-06-20T16:27:58.440Z,28.90
2018-06-20T16:30:30.654Z,28.90
2018-06-20T16:32:58.251Z,28.90
2018-06-20T16:35:25.710Z,28.90
2018-06-20T16:37:53.393Z,28.80
2018-06-20T16:40:20.708Z,28.80
2018-06-20T16:42:48.193Z,28.80
2018-06-20T16:45:15.577Z,28.80
2018-06-20T16:47:43.297Z,28.80
2018-06-20T16:50:10.710Z,28.90
2018-06-20T16:55:05.608Z,28.80
2018-06-20T16:57:34.036Z,28.70
2018-06-20T17:00:01.786Z,28.70
2018-06-20T17:02:34.272Z,28.60
2018-06-20T17:05:02.283Z,28.50
2018-06-20T17:07:29.700Z,28.40
2018-06-20T17:09:57.112Z,28.40
2018-06-20T17:12:30.223Z,28.40
2018-06-20T17:15:03.567Z,28.50
2018-06-20T17:17:36.777Z,28.50
2018-06-20T17:20:09.934Z,28.50
2018-06-20T17:22:43.111Z,28.60
2018-06-20T17:25:14.363Z,28.50
2018-06-20T17:27:41.960Z,28.50
2018-06-20T17:30:09.570Z,28.40
2018-06-20T17:32:37.024Z,28.40
2018-06-20T17:35:04.539Z,28.40
2018-06-20T17:37:32.354Z,28.40
2018-06-20T17:39:59.757Z,28.30
2018-06-20T17:42:27.581Z,28.30
2018-06-20T17:44:55.208Z,28.30
2018-06-20T17:47:23.004Z,28.20
2018-06-20T17:49:50.637Z,28.20
2018-06-20T17:52:18.245Z,28.20
2018-06-20T17:54:45.815Z,28.20
2018-06-20T17:57:13.301Z,28.20
2018-06-20T17:59:41.093Z,28.20
2018-06-20T18:02:09.011Z,28.10
2018-06-20T18:04:42.001Z,28.10
2018-06-20T18:07:14.988Z,28.00
2018-06-20T18:09:48.277Z,27.90
2018-06-20T18:12:21.633Z,28.00
2018-06-20T18:14:54.565Z,27.90
2018-06-20T18:17:22.341Z,27.80
2018-06-20T18:19:49.879Z,27.70
2018-06-20T18:22:17.802Z,27.60
2018-06-20T18:24:45.322Z,27.50
2018-06-20T18:27:12.721Z,27.50
2018-06-20T18:29:40.251Z,27.50
2018-06-20T18:32:08.172Z,27.40
2018-06-20T18:34:35.676Z,27.30
2018-06-20T18:37:03.999Z,27.20
2018-06-20T18:39:37.576Z,27.10
2018-06-20T18:42:05.389Z,27.00
2018-06-20T18:44:33.043Z,26.90
2018-06-20T18:47:00.602Z,26.80
2018-06-20T18:49:28.093Z,26.70
2018-06-20T18:51:55.523Z,26.60
2018-06-20T18:54:23.327Z,26.40
2018-06-20T18:56:50.981Z,26.30
2018-06-20T18:59:24.207Z,26.20
2018-06-20T19:01:57.578Z,26.10
2018-06-20T19:04:30.786Z,25.90
2018-06-20T19:07:03.991Z,25.80
2018-06-20T19:09:31.501Z,25.70
2018-06-20T19:11:58.940Z,25.60
2018-06-20T19:14:26.380Z,25.50
2018-06-20T19:16:54.682Z,25.50
2018-06-20T19:19:22.118Z,25.40
2018-06-20T19:21:49.626Z,25.40
2018-06-20T19:24:17.249Z,25.40
2018-06-20T19:26:44.766Z,25.30
2018-06-20T19:29:12.971Z,25.20
2018-06-20T19:31:40.559Z,25.10
2018-06-20T19:34:07.972Z,25.00
2018-06-20T19:36:35.553Z,25.00
2018-06-20T19:40:12.889Z,25.00
2018-06-20T19:42:40.456Z,24.80
2018-06-20T19:45:08.118Z,24.80
2018-06-20T19:47:35.527Z,24.80
2018-06-20T19:50:03.128Z,24.60
2018-06-20T19:52:30.554Z,24.50
2018-06-20T19:54:58.066Z,24.50
2018-06-20T19:57:25.547Z,24.40
2018-06-20T19:59:52.935Z,24.30
2018-06-20T20:02:20.453Z,24.30
2018-06-20T20:04:47.849Z,24.20
2018-06-20T20:07:15.210Z,24.20
2018-06-20T20:09:42.590Z,24.20
2018-06-20T20:12:10.134Z,24.10
2018-06-20T20:14:37.511Z,24.00
2018-06-20T20:17:05.127Z,24.00
2018-06-20T20:19:32.614Z,23.90
2018-06-20T20:22:00.035Z,23.80
2018-06-20T20:24:27.476Z,23.80
2018-06-20T20:26:54.850Z,23.70
2018-06-20T20:29:22.318Z,23.70
2018-06-20T20:31:49.753Z,23.60
2018-06-20T20:34:17.090Z,23.50
2018-06-20T20:36:44.584Z,23.50
2018-06-20T20:39:11.995Z,23.40
2018-06-20T20:41:39.386Z,23.40
2018-06-20T20:44:07.354Z,23.30
2018-06-20T20:46:34.890Z,23.30
2018-06-20T20:49:02.397Z,23.20
2018-06-20T20:51:29.784Z,23.10
2018-06-20T20:53:57.135Z,23.10
2018-06-20T20:56:24.644Z,23.00
2018-06-20T20:58:52.101Z,22.90
2018-06-20T21:01:19.597Z,22.90
2018-06-20T21:03:47.039Z,22.70
2018-06-20T21:06:14.536Z,22.60
2018-06-20T21:08:42.157Z,22.60
2018-06-20T21:11:09.454Z,22.50
2018-06-20T21:13:36.993Z,22.50
2018-06-20T21:16:04.546Z,22.40
2018-06-20T21:18:31.896Z,22.50
2018-06-20T21:20:59.371Z,22.30
2018-06-20T21:23:26.832Z,22.10
2018-06-20T21:25:54.306Z,22.00
2018-06-20T21:28:21.802Z,21.90
2018-06-20T21:30:49.295Z,21.80
2018-06-20T21:33:16.693Z,21.80
2018-06-20T21:35:44.130Z,21.60
2018-06-20T21:38:11.741Z,21.50
2018-06-20T21:40:39.187Z,21.50
2018-06-20T21:43:06.560Z,21.40
2018-06-20T21:45:33.945Z,21.40
2018-06-20T21:48:01.469Z,21.40
2018-06-20T21:50:28.993Z,21.40
2018-06-20T21:52:56.474Z,21.40
2018-06-20T22:00:18.639Z,21.40
2018-06-20T22:02:46.063Z,21.40
2018-06-20T22:05:13.544Z,21.40
2018-06-20T22:07:41.021Z,21.30
2018-06-20T22:10:08.416Z,21.20
2018-06-20T22:12:35.744Z,21.20
2018-06-20T22:15:03.361Z,21.20
2018-06-20T22:17:31.124Z,21.20
2018-06-20T22:22:25.959Z,21.00
2018-06-20T22:24:53.346Z,20.90
2018-06-20T22:27:21.114Z,21.00
2018-06-20T22:29:48.556Z,21.00
2018-06-20T22:32:16.068Z,20.90
2018-06-20T22:34:43.460Z,20.80
2018-06-20T22:37:10.835Z,20.70
2018-06-20T22:39:38.233Z,20.80
2018-06-20T22:42:05.647Z,20.70
2018-06-20T22:44:33.162Z,20.60
2018-06-20T22:47:00.589Z,20.50
2018-06-20T22:49:28.010Z,20.50
2018-06-20T22:51:55.507Z,20.40
2018-06-20T22:54:22.902Z,20.40
2018-06-20T22:56:50.372Z,20.30
2018-06-20T22:59:17.800Z,20.40
2018-06-20T23:01:45.137Z,20.30
2018-06-20T23:04:12.553Z,20.40
2018-06-20T23:06:40.025Z,20.40
2018-06-20T23:09:09.006Z,20.40
2018-06-20T23:11:42.030Z,20.40
2018-06-20T23:14:09.390Z,20.50
2018-06-20T23:16:36.833Z,20.50
2018-06-20T23:19:04.426Z,20.40
2018-06-20T23:21:32.067Z,20.50
2018-06-20T23:23:59.449Z,20.40
2018-06-20T23:26:26.897Z,20.30
2018-06-20T23:28:54.252Z,20.30
2018-06-20T23:31:21.635Z,20.20
2018-06-20T23:33:49.029Z,20.20
2018-06-20T23:36:16.410Z,20.10
2018-06-20T23:38:43.916Z,20.10
2018-06-20T23:41:11.623Z,20.20
2018-06-20T23:43:39.086Z,20.20
2018-06-20T23:46:06.446Z,20.20
2018-06-20T23:48:33.889Z,20.20
2018-06-20T23:51:01.289Z,20.10
2018-06-20T23:53:28.635Z,20.10
2018-06-20T23:55:56.109Z,19.90
2018-06-20T23:58:23.520Z,20.00
